createdAt,value
2023-02-15T00:00:35.436Z,18.90
2023-02-15T00:01:35.481Z,17.80
2023-02-15T00:03:52.222Z,17.00
2023-02-15T00:04:52.218Z,18.30
2023-02-15T00:05:52.212Z,18.30
2023-02-15T00:06:52.192Z,20.30
2023-02-15T00:07:52.184Z,20.00
2023-02-15T00:08:52.170Z,18.60
2023-02-15T00:09:52.147Z,18.10
2023-02-15T00:10:52.139Z,17.80
2023-02-15T00:11:52.121Z,17.70
2023-02-15T00:12:52.138Z,17.10
2023-02-15T00:13:52.104Z,16.30
2023-02-15T00:14:52.108Z,16.80
2023-02-15T00:15:52.095Z,16.90
2023-02-15T00:16:52.090Z,15.20
2023-02-15T00:17:52.077Z,16.10
2023-02-15T00:18:52.076Z,17.30
2023-02-15T00:19:52.048Z,17.30
2023-02-15T00:20:52.064Z,16.70
2023-02-15T00:21:52.029Z,17.50
2023-02-15T00:22:52.037Z,17.10
2023-02-15T00:23:52.007Z,16.30
2023-02-15T00:24:52.006Z,16.00
2023-02-15T00:25:51.998Z,16.10
2023-02-15T00:26:51.979Z,16.70
2023-02-15T00:27:51.981Z,17.20
2023-02-15T00:28:51.962Z,17.10
2023-02-15T00:29:51.982Z,16.30
2023-02-15T00:30:52.007Z,17.80
2023-02-15T00:31:51.977Z,17.40
2023-02-15T00:32:51.930Z,17.60
2023-02-15T00:33:51.907Z,18.20
2023-02-15T00:34:51.899Z,17.60
2023-02-15T00:35:51.884Z,18.30
2023-02-15T00:36:51.906Z,17.40
2023-02-15T00:37:51.877Z,18.10
2023-02-15T00:38:51.855Z,17.60
2023-02-15T00:39:51.895Z,18.80
2023-02-15T00:40:51.841Z,17.70
2023-02-15T00:41:51.825Z,19.70
2023-02-15T00:42:51.849Z,21.00
2023-02-15T00:43:51.810Z,18.40
2023-02-15T00:44:51.798Z,18.00
2023-02-15T00:45:51.804Z,19.20
2023-02-15T00:46:51.771Z,17.80
2023-02-15T00:47:51.774Z,15.80
2023-02-15T00:48:51.773Z,16.90
2023-02-15T00:49:53.774Z,16.50
2023-02-15T00:50:51.759Z,15.70
2023-02-15T00:51:51.729Z,16.00
2023-02-15T00:52:51.728Z,16.30
2023-02-15T00:53:51.710Z,16.00
2023-02-15T00:54:51.768Z,15.30
2023-02-15T00:55:52.567Z,15.40
2023-02-15T00:56:51.668Z,14.60
2023-02-15T00:57:51.701Z,14.80
2023-02-15T00:58:51.655Z,15.00
2023-02-15T00:59:51.646Z,15.90
2023-02-15T01:00:51.645Z,15.40
2023-02-15T01:01:51.661Z,16.80
2023-02-15T01:02:51.623Z,16.20
2023-02-15T01:03:51.601Z,17.70
2023-02-15T01:04:51.601Z,16.60
2023-02-15T01:05:51.581Z,16.50
2023-02-15T01:06:51.574Z,17.70
2023-02-15T01:07:54.053Z,16.80
2023-02-15T01:08:51.553Z,17.60
2023-02-15T01:09:51.537Z,17.40
2023-02-15T01:10:51.532Z,16.00
2023-02-15T01:11:51.525Z,15.90
2023-02-15T01:12:51.513Z,14.20
2023-02-15T01:13:51.511Z,14.80
2023-02-15T01:14:51.492Z,13.40
2023-02-15T01:15:51.515Z,14.40
2023-02-15T01:16:51.471Z,14.70
2023-02-15T01:17:51.458Z,15.80
2023-02-15T01:18:51.463Z,16.20
2023-02-15T01:19:51.437Z,14.80
2023-02-15T01:20:51.467Z,14.80
2023-02-15T01:21:51.413Z,15.00
2023-02-15T01:22:51.409Z,16.00
2023-02-15T01:23:51.444Z,16.00
2023-02-15T01:24:51.394Z,15.80
2023-02-15T01:25:51.381Z,15.40
2023-02-15T01:26:51.369Z,15.50
2023-02-15T01:27:51.356Z,15.50
2023-02-15T01:28:51.361Z,14.40
2023-02-15T01:29:51.380Z,14.90
2023-02-15T01:30:51.449Z,15.60
2023-02-15T01:31:51.410Z,15.00
2023-02-15T01:32:51.317Z,16.00
2023-02-15T01:33:51.330Z,15.50
2023-02-15T01:34:51.288Z,15.10
2023-02-15T01:35:51.283Z,16.30
2023-02-15T01:36:51.278Z,15.30
2023-02-15T01:37:51.269Z,15.10
2023-02-15T01:38:51.273Z,14.80
2023-02-15T01:39:51.239Z,14.70
2023-02-15T01:40:51.225Z,15.20
2023-02-15T01:41:51.211Z,16.50
2023-02-15T01:42:51.208Z,15.80
2023-02-15T01:43:51.214Z,14.70
2023-02-15T01:44:51.184Z,14.90
2023-02-15T01:45:51.224Z,14.60
2023-02-15T01:46:51.175Z,14.10
2023-02-15T01:47:51.155Z,15.20
2023-02-15T01:48:51.162Z,13.90
2023-02-15T01:49:51.129Z,14.50
2023-02-15T01:50:51.133Z,14.20
2023-02-15T01:51:51.136Z,15.00
2023-02-15T01:52:51.099Z,16.40
2023-02-15T01:54:51.080Z,15.90
2023-02-15T01:55:51.096Z,15.10
2023-02-15T01:56:51.069Z,14.80
2023-02-15T01:57:51.041Z,15.00
2023-02-15T01:58:51.066Z,14.80
2023-02-15T01:59:51.039Z,14.70
2023-02-15T02:00:51.025Z,13.30
2023-02-15T02:01:51.075Z,14.30
2023-02-15T02:02:51.058Z,14.20
2023-02-15T02:03:50.992Z,14.90
2023-02-15T02:04:50.996Z,15.30
2023-02-15T02:05:50.962Z,15.00
2023-02-15T02:06:50.962Z,15.40
2023-02-15T02:07:50.945Z,15.70
2023-02-15T02:08:50.954Z,14.80
2023-02-15T02:09:50.921Z,15.10
2023-02-15T02:10:50.921Z,15.40
2023-02-15T02:11:50.916Z,16.50
2023-02-15T02:12:50.909Z,16.50
2023-02-15T02:13:50.914Z,15.90
2023-02-15T02:14:50.880Z,15.10
2023-02-15T02:15:50.905Z,16.00
2023-02-15T02:16:50.863Z,15.70
2023-02-15T02:17:50.846Z,14.60
2023-02-15T02:18:50.865Z,15.40
2023-02-15T02:19:50.832Z,15.20
2023-02-15T02:20:50.823Z,15.10
2023-02-15T02:21:50.823Z,16.00
2023-02-15T02:22:50.823Z,15.90
2023-02-15T02:23:50.791Z,16.30
2023-02-15T02:24:50.816Z,17.40
2023-02-15T02:25:50.770Z,15.70
2023-02-15T02:26:50.774Z,15.70
2023-02-15T02:27:50.748Z,16.60
2023-02-15T02:28:50.743Z,15.50
2023-02-15T02:29:50.807Z,16.30
2023-02-15T02:30:50.832Z,15.20
2023-02-15T02:31:50.735Z,15.80
2023-02-15T02:32:50.714Z,15.80
2023-02-15T02:33:50.747Z,16.60
2023-02-15T02:34:50.702Z,15.90
2023-02-15T02:35:50.666Z,16.20
2023-02-15T02:36:50.666Z,17.00
2023-02-15T02:37:50.654Z,18.00
2023-02-15T02:38:50.646Z,16.70
2023-02-15T02:39:50.641Z,17.70
2023-02-15T02:40:50.628Z,18.30
2023-02-15T02:41:50.609Z,18.70
2023-02-15T02:42:50.610Z,18.50
2023-02-15T02:43:50.590Z,18.60
2023-02-15T02:44:50.604Z,18.30
2023-02-15T02:45:50.567Z,19.80
2023-02-15T02:46:50.669Z,20.20
2023-02-15T02:47:50.552Z,21.10
2023-02-15T02:48:50.542Z,20.70
2023-02-15T02:49:50.537Z,19.90
2023-02-15T02:50:50.522Z,19.70
2023-02-15T02:51:50.510Z,21.60
2023-02-15T02:52:50.503Z,21.40
2023-02-15T02:53:50.486Z,20.00
2023-02-15T02:54:50.489Z,20.20
2023-02-15T02:55:50.465Z,19.70
2023-02-15T02:56:50.468Z,19.00
2023-02-15T02:57:50.448Z,19.50
2023-02-15T02:58:50.431Z,19.30
2023-02-15T02:59:50.432Z,19.40
2023-02-15T03:00:50.414Z,17.70
2023-02-15T03:01:50.453Z,19.20
2023-02-15T03:02:50.439Z,19.60
2023-02-15T03:03:50.382Z,21.50
2023-02-15T03:04:50.398Z,19.70
2023-02-15T03:05:50.356Z,19.80
2023-02-15T03:06:50.364Z,20.10
2023-02-15T03:07:50.344Z,19.10
2023-02-15T03:08:50.333Z,20.50
2023-02-15T03:09:50.337Z,20.20
2023-02-15T03:10:50.309Z,19.10
2023-02-15T03:11:50.300Z,18.30
2023-02-15T03:12:50.309Z,20.10
2023-02-15T03:13:50.288Z,19.10
2023-02-15T03:14:50.286Z,19.00
2023-02-15T03:15:50.299Z,19.30
2023-02-15T03:16:50.268Z,19.80
2023-02-15T03:17:50.240Z,19.40
2023-02-15T03:18:50.227Z,18.60
2023-02-15T03:19:50.240Z,18.30
2023-02-15T03:20:50.220Z,20.20
2023-02-15T03:21:50.208Z,22.40
2023-02-15T03:22:50.190Z,21.50
2023-02-15T03:23:50.184Z,20.80
2023-02-15T03:24:50.176Z,23.40
2023-02-15T03:25:50.177Z,24.20
2023-02-15T03:26:50.152Z,23.40
2023-02-15T03:27:50.152Z,24.50
2023-02-15T03:28:50.131Z,23.80
2023-02-15T03:29:50.153Z,24.50
2023-02-15T03:30:50.125Z,23.10
2023-02-15T03:31:50.262Z,24.00
2023-02-15T03:32:50.085Z,24.10
2023-02-15T03:33:50.082Z,23.40
2023-02-15T03:34:50.071Z,23.10
2023-02-15T03:35:50.100Z,23.80
2023-02-15T03:36:50.045Z,23.00
2023-02-15T03:37:50.044Z,22.20
2023-02-15T03:38:50.026Z,21.90
2023-02-15T03:39:50.018Z,22.60
2023-02-15T03:40:50.029Z,23.30
2023-02-15T03:41:49.998Z,22.80
2023-02-15T03:42:50.008Z,22.70
2023-02-15T03:43:49.989Z,22.30
2023-02-15T03:44:49.982Z,22.00
2023-02-15T03:45:49.972Z,21.70
2023-02-15T03:46:51.714Z,21.70
2023-02-15T03:47:49.940Z,21.50
2023-02-15T03:48:49.930Z,21.50
2023-02-15T03:49:49.927Z,20.90
2023-02-15T03:50:49.918Z,20.50
2023-02-15T03:51:49.901Z,21.00
2023-02-15T03:52:49.886Z,20.10
2023-02-15T03:53:49.878Z,20.30
2023-02-15T03:54:49.862Z,20.10
2023-02-15T03:55:49.879Z,20.20
2023-02-15T03:56:49.844Z,20.70
2023-02-15T03:57:49.839Z,19.90
2023-02-15T03:58:49.823Z,20.70
2023-02-15T03:59:49.821Z,20.30
2023-02-15T04:00:49.844Z,21.20
2023-02-15T04:01:49.800Z,21.10
2023-02-15T04:02:49.820Z,20.90
2023-02-15T04:03:49.779Z,21.30
2023-02-15T04:04:49.763Z,21.20
2023-02-15T04:05:49.770Z,20.90
2023-02-15T04:06:49.741Z,20.00
2023-02-15T04:07:49.740Z,20.10
2023-02-15T04:08:49.717Z,19.80
2023-02-15T04:09:49.716Z,19.10
2023-02-15T04:10:49.716Z,19.10
2023-02-15T04:11:49.703Z,19.30
2023-02-15T04:12:49.685Z,18.50
2023-02-15T04:13:49.677Z,18.90
2023-02-15T04:14:49.659Z,19.10
2023-02-15T04:15:49.667Z,19.10
2023-02-15T04:16:49.722Z,18.90
2023-02-15T04:17:49.629Z,20.10
2023-02-15T04:18:49.613Z,19.40
2023-02-15T04:19:49.620Z,20.60
2023-02-15T04:20:49.594Z,18.80
2023-02-15T04:21:49.649Z,20.60
2023-02-15T04:22:49.571Z,20.30
2023-02-15T04:23:49.565Z,20.40
2023-02-15T04:24:49.547Z,19.90
2023-02-15T04:25:49.545Z,18.10
2023-02-15T04:26:49.548Z,18.10
2023-02-15T04:27:49.527Z,18.50
2023-02-15T04:28:49.510Z,18.20
2023-02-15T04:29:49.511Z,17.00
2023-02-15T04:30:49.485Z,18.50
2023-02-15T04:31:49.576Z,17.80
2023-02-15T04:32:49.477Z,17.70
2023-02-15T04:33:49.454Z,18.30
2023-02-15T04:34:49.446Z,18.30
2023-02-15T04:35:50.547Z,17.20
2023-02-15T04:36:49.438Z,17.80
2023-02-15T04:37:49.425Z,17.30
2023-02-15T04:38:49.410Z,18.20
2023-02-15T04:39:49.404Z,17.10
2023-02-15T04:40:49.393Z,17.70
2023-02-15T04:41:49.395Z,17.60
2023-02-15T04:42:49.366Z,17.30
2023-02-15T04:43:49.358Z,17.00
2023-02-15T04:44:49.336Z,17.80
2023-02-15T04:45:49.407Z,18.30
2023-02-15T04:46:49.343Z,17.60
2023-02-15T04:47:49.336Z,18.10
2023-02-15T04:48:49.319Z,17.70
2023-02-15T04:49:49.294Z,17.40
2023-02-15T04:50:49.282Z,18.10
2023-02-15T04:51:49.293Z,18.00
2023-02-15T04:52:49.268Z,19.60
2023-02-15T04:53:49.252Z,18.30
2023-02-15T04:54:49.247Z,18.80
2023-02-15T04:55:50.437Z,18.90
2023-02-15T04:56:50.429Z,17.40
2023-02-15T04:57:50.428Z,17.60
2023-02-15T04:58:50.400Z,18.20
2023-02-15T04:59:50.366Z,19.30
2023-02-15T05:00:50.395Z,17.00
2023-02-15T05:01:50.376Z,17.90
2023-02-15T05:02:50.363Z,18.10
2023-02-15T05:03:50.365Z,18.80
2023-02-15T05:04:50.316Z,18.70
2023-02-15T05:05:50.312Z,17.60
2023-02-15T05:06:50.294Z,17.90
2023-02-15T05:07:50.308Z,17.80
2023-02-15T05:08:50.281Z,18.10
2023-02-15T05:09:50.280Z,18.90
2023-02-15T05:10:50.291Z,17.60
2023-02-15T05:11:50.254Z,18.40
2023-02-15T05:12:50.266Z,17.20
2023-02-15T05:13:50.220Z,18.40
2023-02-15T05:14:50.220Z,18.20
2023-02-15T05:15:50.217Z,16.50
2023-02-15T05:16:50.281Z,18.80
2023-02-15T05:17:50.201Z,17.50
2023-02-15T05:18:50.202Z,18.00
2023-02-15T05:19:50.162Z,17.50
2023-02-15T05:20:50.167Z,17.60
2023-02-15T05:21:50.155Z,17.50
2023-02-15T05:22:50.151Z,19.20
2023-02-15T05:23:50.111Z,18.50
2023-02-15T05:24:50.151Z,17.30
2023-02-15T05:25:50.170Z,16.60
2023-02-15T05:26:50.155Z,17.40
2023-02-15T05:27:50.123Z,16.30
2023-02-15T05:28:50.107Z,18.00
2023-02-15T05:29:50.147Z,17.30
2023-02-15T05:30:50.234Z,16.60
2023-02-15T05:31:50.304Z,17.30
2023-02-15T05:32:50.129Z,17.10
2023-02-15T05:33:50.056Z,16.80
2023-02-15T05:34:50.056Z,18.20
2023-02-15T05:35:50.026Z,16.30
2023-02-15T05:36:50.027Z,17.00
2023-02-15T05:37:50.015Z,18.10
2023-02-15T05:38:50.034Z,17.80
2023-02-15T05:39:50.002Z,18.10
2023-02-15T05:40:50.291Z,18.40
2023-02-15T05:41:50.957Z,17.90
2023-02-15T05:42:49.967Z,17.30
2023-02-15T05:43:49.949Z,18.20
2023-02-15T05:44:49.943Z,19.00
2023-02-15T05:45:49.962Z,18.80
2023-02-15T05:46:49.930Z,18.70
2023-02-15T05:47:49.938Z,16.90
2023-02-15T05:48:49.918Z,17.20
2023-02-15T05:49:49.904Z,20.10
2023-02-15T05:50:49.907Z,18.80
2023-02-15T05:51:49.866Z,18.80
2023-02-15T05:52:52.089Z,18.90
2023-02-15T05:53:49.871Z,19.10
2023-02-15T05:54:49.847Z,18.10
2023-02-15T05:55:49.839Z,18.80
2023-02-15T05:56:49.815Z,19.20
2023-02-15T05:57:49.794Z,18.70
2023-02-15T05:58:49.910Z,19.80
2023-02-15T05:59:49.819Z,19.60
2023-02-15T06:00:49.836Z,19.40
2023-02-15T06:01:49.761Z,19.30
2023-02-15T06:02:49.829Z,19.30
2023-02-15T06:03:49.788Z,20.60
2023-02-15T06:04:49.722Z,20.20
2023-02-15T06:05:49.759Z,19.70
2023-02-15T06:06:49.704Z,20.20
2023-02-15T06:07:49.703Z,21.70
2023-02-15T06:08:50.330Z,21.80
2023-02-15T06:09:49.746Z,21.90
2023-02-15T06:10:51.422Z,20.80
2023-02-15T06:11:49.631Z,21.40
2023-02-15T06:12:49.720Z,21.00
2023-02-15T06:13:49.640Z,19.80
2023-02-15T06:14:49.624Z,20.40
2023-02-15T06:15:49.686Z,21.70
2023-02-15T06:16:49.618Z,21.20
2023-02-15T06:17:49.632Z,21.40
2023-02-15T06:18:49.653Z,21.40
2023-02-15T06:19:49.595Z,20.60
2023-02-15T06:20:49.621Z,20.20
2023-02-15T06:21:49.562Z,21.80
2023-02-15T06:22:49.574Z,22.30
2023-02-15T06:23:49.607Z,22.80
2023-02-15T06:24:49.650Z,22.30
2023-02-15T06:25:49.576Z,21.10
2023-02-15T06:26:49.541Z,20.40
2023-02-15T06:27:49.569Z,20.80
2023-02-15T06:28:49.548Z,23.00
2023-02-15T06:29:49.619Z,20.80
2023-02-15T06:30:49.568Z,20.80
2023-02-15T06:31:49.529Z,18.30
2023-02-15T06:32:49.455Z,18.60
2023-02-15T06:33:49.438Z,18.90
2023-02-15T06:34:49.485Z,19.10
2023-02-15T06:35:49.413Z,19.50
2023-02-15T06:36:49.423Z,20.90
2023-02-15T06:37:49.647Z,18.80
2023-02-15T06:38:49.403Z,20.10
2023-02-15T06:39:49.369Z,19.50
2023-02-15T06:40:49.360Z,19.40
2023-02-15T06:41:49.353Z,18.50
2023-02-15T06:42:49.344Z,18.40
2023-02-15T06:43:49.356Z,20.30
2023-02-15T06:44:49.374Z,19.20
2023-02-15T06:45:49.330Z,19.90
2023-02-15T06:46:49.400Z,19.10
2023-02-15T06:47:49.338Z,19.10
2023-02-15T06:48:49.342Z,19.10
2023-02-15T06:49:49.363Z,18.10
2023-02-15T06:50:49.393Z,18.70
2023-02-15T06:51:49.328Z,19.90
2023-02-15T06:52:49.329Z,18.90
2023-02-15T06:53:49.321Z,18.10
2023-02-15T06:54:49.340Z,18.10
2023-02-15T06:55:49.274Z,18.20
2023-02-15T06:56:49.225Z,17.50
2023-02-15T06:57:50.947Z,17.10
2023-02-15T06:58:50.234Z,16.40
2023-02-15T06:59:49.216Z,16.20
2023-02-15T07:00:49.209Z,15.90
2023-02-15T07:01:49.240Z,16.40
2023-02-15T07:02:49.168Z,16.30
2023-02-15T07:03:49.193Z,16.80
2023-02-15T07:04:49.162Z,16.60
2023-02-15T07:05:49.137Z,18.00
2023-02-15T07:06:49.116Z,16.50
2023-02-15T07:07:49.119Z,15.30
2023-02-15T07:08:49.129Z,15.80
2023-02-15T07:09:49.063Z,17.10
2023-02-15T07:10:49.098Z,16.30
2023-02-15T07:11:49.065Z,16.60
2023-02-15T07:12:49.053Z,17.00
2023-02-15T07:13:49.038Z,16.50
2023-02-15T07:14:49.030Z,19.00
2023-02-15T07:15:49.105Z,18.10
2023-02-15T07:16:49.007Z,18.60
2023-02-15T07:17:50.091Z,17.60
2023-02-15T07:18:49.026Z,18.50
2023-02-15T07:19:48.968Z,18.80
2023-02-15T07:20:49.005Z,19.50
2023-02-15T07:21:48.952Z,19.00
2023-02-15T07:22:49.029Z,18.20
2023-02-15T07:23:48.931Z,17.80
2023-02-15T07:24:48.942Z,17.70
2023-02-15T07:25:48.937Z,20.90
2023-02-15T07:26:48.965Z,18.60
2023-02-15T07:27:48.935Z,18.40
2023-02-15T07:28:48.942Z,17.20
2023-02-15T07:29:48.891Z,17.50
2023-02-15T07:30:48.964Z,18.30
2023-02-15T07:31:48.949Z,18.60
2023-02-15T07:32:48.915Z,19.90
2023-02-15T07:33:48.918Z,19.60
2023-02-15T07:34:48.897Z,18.90
2023-02-15T07:35:48.897Z,19.70
2023-02-15T07:36:48.910Z,19.10
2023-02-15T07:37:48.855Z,18.30
2023-02-15T07:38:48.844Z,20.70
2023-02-15T07:39:48.884Z,19.00
2023-02-15T07:40:48.809Z,18.40
2023-02-15T07:41:48.798Z,18.00
2023-02-15T07:42:48.807Z,19.30
2023-02-15T07:43:48.834Z,18.90
2023-02-15T07:44:48.842Z,18.70
2023-02-15T07:45:48.808Z,19.90
2023-02-15T07:46:48.853Z,19.20
2023-02-15T07:47:48.773Z,18.70
2023-02-15T07:48:48.748Z,19.00
2023-02-15T07:49:48.703Z,17.70
2023-02-15T07:50:48.749Z,17.00
2023-02-15T07:51:48.701Z,17.10
2023-02-15T07:52:48.740Z,17.40
2023-02-15T07:53:48.763Z,18.10
2023-02-15T07:54:48.693Z,16.90
2023-02-15T07:55:48.648Z,17.10
2023-02-15T07:56:48.671Z,16.70
2023-02-15T07:57:48.746Z,16.70
2023-02-15T07:58:48.674Z,16.80
2023-02-15T07:59:48.654Z,16.80
2023-02-15T08:00:48.701Z,15.60
2023-02-15T08:01:48.667Z,16.90
2023-02-15T08:02:48.670Z,16.10
2023-02-15T08:03:48.771Z,15.60
2023-02-15T08:04:48.698Z,14.90
2023-02-15T08:05:48.653Z,15.70
2023-02-15T08:06:48.540Z,16.20
2023-02-15T08:07:48.568Z,15.50
2023-02-15T08:08:48.584Z,14.70
2023-02-15T08:09:48.521Z,15.00
2023-02-15T08:10:48.558Z,15.50
2023-02-15T08:11:48.566Z,15.80
2023-02-15T08:12:48.528Z,16.50
2023-02-15T08:13:48.485Z,16.40
2023-02-15T08:14:49.536Z,16.30
2023-02-15T08:15:48.462Z,16.10
2023-02-15T08:16:48.490Z,16.10
2023-02-15T08:17:48.459Z,15.60
2023-02-15T08:18:48.452Z,15.80
2023-02-15T08:19:48.440Z,16.30
2023-02-15T08:20:48.455Z,15.50
2023-02-15T08:21:48.421Z,17.10
2023-02-15T08:22:48.452Z,15.90
2023-02-15T08:23:48.430Z,15.90
2023-02-15T08:24:48.413Z,16.30
2023-02-15T08:25:48.375Z,17.10
2023-02-15T08:26:48.470Z,15.60
2023-02-15T08:27:48.381Z,16.40
2023-02-15T08:28:48.343Z,16.00
2023-02-15T08:29:48.391Z,15.80
2023-02-15T08:30:48.416Z,16.00
2023-02-15T08:31:48.408Z,15.60
2023-02-15T08:32:48.321Z,16.60
2023-02-15T08:33:48.261Z,14.70
2023-02-15T08:34:48.273Z,15.80
2023-02-15T08:35:48.273Z,15.20
2023-02-15T08:36:48.256Z,16.30
2023-02-15T08:37:48.392Z,15.80
2023-02-15T08:38:48.255Z,15.60
2023-02-15T08:39:48.231Z,15.90
2023-02-15T08:40:48.210Z,16.50
2023-02-15T08:41:48.406Z,15.50
2023-02-15T08:42:48.193Z,15.40
2023-02-15T08:43:48.255Z,15.20
2023-02-15T08:44:50.311Z,14.80
2023-02-15T08:45:49.197Z,14.80
2023-02-15T08:46:48.230Z,15.40
2023-02-15T08:47:48.178Z,15.00
2023-02-15T08:48:48.186Z,15.20
2023-02-15T08:49:48.169Z,14.60
2023-02-15T08:50:48.128Z,15.10
2023-02-15T08:51:48.195Z,14.60
2023-02-15T08:52:48.106Z,14.10
2023-02-15T08:53:48.156Z,14.00
2023-02-15T08:54:49.108Z,14.80
2023-02-15T08:55:48.088Z,14.60
2023-02-15T08:56:48.135Z,15.40
2023-02-15T08:57:48.128Z,15.80
2023-02-15T08:58:48.123Z,14.60
2023-02-15T08:59:48.069Z,14.60
2023-02-15T09:00:48.110Z,15.50
2023-02-15T09:01:48.026Z,15.60
2023-02-15T09:02:48.050Z,15.90
2023-02-15T09:03:48.081Z,16.40
2023-02-15T09:04:48.028Z,16.60
2023-02-15T09:05:48.991Z,16.40
2023-02-15T09:06:49.084Z,16.20
2023-02-15T09:07:48.972Z,17.30
2023-02-15T09:08:48.055Z,16.30
2023-02-15T09:09:48.010Z,17.20
2023-02-15T09:10:47.933Z,16.10
2023-02-15T09:11:47.926Z,16.60
2023-02-15T09:12:47.954Z,16.50
2023-02-15T09:13:47.925Z,16.60
2023-02-15T09:14:47.897Z,14.70
2023-02-15T09:15:48.017Z,14.60
2023-02-15T09:16:47.959Z,14.80
2023-02-15T09:17:48.970Z,15.10
2023-02-15T09:18:47.935Z,15.00
2023-02-15T09:19:47.983Z,15.00
2023-02-15T09:20:47.890Z,15.40
2023-02-15T09:21:47.988Z,15.20
2023-02-15T09:22:47.865Z,14.80
2023-02-15T09:23:47.801Z,14.00
2023-02-15T09:24:47.844Z,16.20
2023-02-15T09:25:47.902Z,16.40
2023-02-15T09:26:47.811Z,16.60
2023-02-15T09:27:47.801Z,16.40
2023-02-15T09:28:47.759Z,15.40
2023-02-15T09:29:47.812Z,16.30
2023-02-15T09:30:47.794Z,15.70
2023-02-15T09:31:47.720Z,15.30
2023-02-15T09:32:47.672Z,15.50
2023-02-15T09:33:47.642Z,15.30
2023-02-15T09:34:47.667Z,18.50
2023-02-15T09:35:47.628Z,15.40
2023-02-15T09:36:47.869Z,16.30
2023-02-15T09:37:47.744Z,15.50
2023-02-15T09:38:47.624Z,16.90
2023-02-15T09:39:49.123Z,16.50
2023-02-15T09:40:48.642Z,16.20
2023-02-15T09:41:47.626Z,18.00
2023-02-15T09:42:47.672Z,17.90
2023-02-15T09:43:47.632Z,17.50
2023-02-15T09:44:47.599Z,17.40
2023-02-15T09:45:47.631Z,17.40
2023-02-15T09:46:47.591Z,18.50
2023-02-15T09:47:47.603Z,16.90
2023-02-15T09:48:47.521Z,16.30
2023-02-15T09:49:47.540Z,17.50
2023-02-15T09:50:47.508Z,18.70
2023-02-15T09:51:47.459Z,18.70
2023-02-15T09:52:47.642Z,17.70
2023-02-15T09:53:47.481Z,17.50
2023-02-15T09:54:47.478Z,17.10
2023-02-15T09:55:47.472Z,16.50
2023-02-15T09:56:47.413Z,17.80
2023-02-15T09:57:47.448Z,17.60
2023-02-15T09:58:47.529Z,16.70
2023-02-15T09:59:47.456Z,17.50
2023-02-15T10:00:47.419Z,18.40
2023-02-15T10:01:47.627Z,18.50
2023-02-15T10:02:47.677Z,17.70
2023-02-15T10:03:47.435Z,17.00
2023-02-15T10:04:47.535Z,17.40
2023-02-15T10:05:47.426Z,19.00
2023-02-15T10:06:47.422Z,17.90
2023-02-15T10:07:47.407Z,17.20
2023-02-15T10:08:47.347Z,17.90
2023-02-15T10:09:47.362Z,17.00
2023-02-15T10:10:47.393Z,17.60
2023-02-15T10:11:47.353Z,17.50
2023-02-15T10:12:47.553Z,17.30
2023-02-15T10:13:47.442Z,16.80
2023-02-15T10:14:47.372Z,16.60
2023-02-15T10:15:47.454Z,16.70
2023-02-15T10:16:49.360Z,16.20
2023-02-15T10:17:47.290Z,16.50
2023-02-15T10:18:47.470Z,16.20
2023-02-15T10:19:47.351Z,16.80
2023-02-15T10:20:47.338Z,16.40
2023-02-15T10:21:47.283Z,16.70
2023-02-15T10:22:47.291Z,16.60
2023-02-15T10:23:47.244Z,16.40
2023-02-15T10:24:48.913Z,17.10
2023-02-15T10:25:48.281Z,16.10
2023-02-15T10:26:47.390Z,16.70
2023-02-15T10:27:47.404Z,17.10
2023-02-15T10:28:47.333Z,16.60
2023-02-15T10:29:47.395Z,16.10
2023-02-15T10:30:47.349Z,16.40
2023-02-15T10:31:47.329Z,17.00
2023-02-15T10:32:48.656Z,16.90
2023-02-15T10:35:57.076Z,16.10
2023-02-15T10:35:58.787Z,16.80
2023-02-15T10:36:58.642Z,16.30
2023-02-15T10:37:58.787Z,17.20
2023-02-15T10:38:58.583Z,17.60
2023-02-15T10:39:58.629Z,17.50
2023-02-15T10:40:59.949Z,17.20
2023-02-15T10:42:04.597Z,16.80
2023-02-15T10:42:59.617Z,17.00
2023-02-15T10:43:58.620Z,17.40
2023-02-15T10:44:59.703Z,17.30
2023-02-15T10:45:58.565Z,16.00
2023-02-15T10:46:58.544Z,16.60
2023-02-15T10:47:58.523Z,17.30
2023-02-15T10:48:58.659Z,17.80
2023-02-15T11:04:44.188Z,17.80
2023-02-15T11:05:44.165Z,18.70
2023-02-15T11:06:44.143Z,18.50
2023-02-15T11:07:44.717Z,19.30
2023-02-15T11:08:44.343Z,19.20
2023-02-15T11:09:44.138Z,18.90
2023-02-15T11:10:44.100Z,19.70
2023-02-15T11:11:44.148Z,18.60
2023-02-15T11:12:44.099Z,19.20
2023-02-15T11:13:44.070Z,19.50
2023-02-15T11:14:44.058Z,19.50
2023-02-15T11:15:44.091Z,18.20
2023-02-15T11:16:44.052Z,17.90
2023-02-15T11:17:44.029Z,18.60
2023-02-15T11:18:44.027Z,18.70
2023-02-15T11:19:44.077Z,20.70
2023-02-15T11:20:43.994Z,19.70
2023-02-15T11:21:44.008Z,19.80
2023-02-15T11:22:43.971Z,20.30
2023-02-15T11:23:43.989Z,19.10
2023-02-15T11:24:43.954Z,18.80
2023-02-15T11:25:43.985Z,18.80
2023-02-15T11:26:43.977Z,18.90
2023-02-15T11:27:45.559Z,19.20
2023-02-15T11:39:06.941Z,18.30
2023-02-15T11:39:55.395Z,18.00
2023-02-15T11:40:55.351Z,19.20
2023-02-15T11:41:55.394Z,19.70
2023-02-15T11:42:55.343Z,19.90
2023-02-15T11:43:55.358Z,20.00
2023-02-15T11:44:56.042Z,20.00
2023-02-15T11:47:30.197Z,20.60
2023-02-15T11:48:29.167Z,20.30
2023-02-15T11:49:29.288Z,20.80
2023-02-15T11:53:47.272Z,19.20
2023-02-15T11:54:30.631Z,18.60
2023-02-15T11:55:32.096Z,18.90
2023-02-15T11:56:30.658Z,19.60
2023-02-15T11:57:30.615Z,19.10
2023-02-15T11:58:57.859Z,19.30
2023-02-15T11:59:30.614Z,19.70
2023-02-15T12:00:30.597Z,20.00
2023-02-15T12:01:30.611Z,19.40
2023-02-15T12:02:30.566Z,19.10
2023-02-15T12:03:30.607Z,19.40
2023-02-15T12:04:30.533Z,18.50
2023-02-15T12:05:32.207Z,20.20
2023-02-15T12:06:30.619Z,18.00
2023-02-15T12:07:30.541Z,18.80
2023-02-15T12:08:30.492Z,18.40
2023-02-15T12:09:30.506Z,19.50
2023-02-15T12:10:30.500Z,18.90
2023-02-15T12:11:30.464Z,18.90
2023-02-15T12:12:30.442Z,19.30
2023-02-15T12:13:30.458Z,19.50
2023-02-15T12:14:30.417Z,19.50
2023-02-15T12:15:30.417Z,19.30
2023-02-15T12:16:30.435Z,19.90
2023-02-15T12:17:30.399Z,19.10
2023-02-15T12:18:30.388Z,19.20
2023-02-15T12:19:30.382Z,19.50
2023-02-15T12:20:30.394Z,20.40
2023-02-15T12:21:30.363Z,19.80
2023-02-15T12:22:30.382Z,18.30
2023-02-15T12:23:30.336Z,18.70
2023-02-15T12:24:30.324Z,18.60
2023-02-15T12:25:30.347Z,18.50
2023-02-15T12:26:30.370Z,17.60
2023-02-15T12:27:30.285Z,18.20
2023-02-15T12:28:30.280Z,18.70
2023-02-15T12:29:30.296Z,19.10
2023-02-15T12:30:30.307Z,19.20
2023-02-15T12:31:30.429Z,18.50
2023-02-15T12:32:30.258Z,18.50
2023-02-15T12:33:30.229Z,19.10
2023-02-15T12:34:30.225Z,19.10
2023-02-15T12:35:30.217Z,18.00
2023-02-15T12:36:30.196Z,19.20
2023-02-15T12:37:30.197Z,19.40
2023-02-15T12:38:30.210Z,18.40
2023-02-15T12:39:30.155Z,18.70
2023-02-15T12:40:31.604Z,20.50
2023-02-15T12:41:30.150Z,18.50
2023-02-15T12:42:30.165Z,18.40
2023-02-15T12:43:30.128Z,18.70
2023-02-15T12:44:30.115Z,18.20
2023-02-15T12:45:30.112Z,19.40
2023-02-15T12:46:30.225Z,18.20
2023-02-15T12:47:30.101Z,17.80
2023-02-15T12:48:30.078Z,18.70
2023-02-15T12:49:30.068Z,18.10
2023-02-15T12:50:34.581Z,18.40
2023-02-15T12:51:30.051Z,19.80
2023-02-15T12:52:30.055Z,18.70
2023-02-15T12:53:30.024Z,19.10
2023-02-15T12:54:30.045Z,17.90
2023-02-15T12:55:30.034Z,18.90
2023-02-15T12:56:30.015Z,18.80
2023-02-15T12:57:31.221Z,18.00
2023-02-15T12:58:31.271Z,19.50
2023-02-15T12:59:31.169Z,18.90
2023-02-15T13:00:31.222Z,17.80
2023-02-15T13:01:31.206Z,18.30
2023-02-15T13:02:31.230Z,19.10
2023-02-15T13:03:31.148Z,18.20
2023-02-15T13:04:31.192Z,18.90
2023-02-15T13:05:31.202Z,18.20
2023-02-15T13:06:31.189Z,18.60
2023-02-15T13:07:31.177Z,19.60
2023-02-15T13:08:31.161Z,20.30
2023-02-15T13:09:31.117Z,19.00
2023-02-15T13:10:31.075Z,18.70
2023-02-15T13:11:31.400Z,18.20
2023-02-15T13:12:32.051Z,18.10
2023-02-15T13:13:31.064Z,18.00
2023-02-15T13:14:31.066Z,19.20
2023-02-15T13:15:31.078Z,19.50
2023-02-15T13:16:31.046Z,18.30
2023-02-15T13:17:30.962Z,19.00
2023-02-15T13:18:31.002Z,19.40
2023-02-15T13:19:30.987Z,18.40
2023-02-15T13:20:30.947Z,18.60
2023-02-15T13:21:30.991Z,19.00
2023-02-15T13:22:30.936Z,19.60
2023-02-15T13:23:30.950Z,18.70
2023-02-15T13:24:30.911Z,18.80
2023-02-15T13:25:31.977Z,19.70